Bartow, Florida
Current Conditions -  °F | °C
As of 3:50 PM on Sunday 23 Nov 2014 (Local Time) from KBOW Reporting Station
Broken Clouds Broken Clouds  
Wind Chill: 82°   Ceiling: 3100
Heat Index: 86°   Visibility: 10mi
Dew Point: 70°   Wind: 13mph
Humidity: 66%   Direction: 170°S
Pressure: 29.88"   Gusts: 20mph
Location:  27.9°N, 81.84°W
Report Text: KBOW 232050Z 17011G17KT 10SM BKN031 28/21 A2988
Loading
Personal Weather Stations






























Interactive Weather Map New forecast layout! Learn more

10-Day Weather Forecast

Advertisements
Track Severe Weather on mobile